sensor_id;sensor_type;location;lat;lon;timestamp;P1;durP1;ratioP1;P2;durP2;ratioP2
21091;SDS011;10704;42.678;23.288;2023-08-01T00:01:37;4.05;;;2.00;;
21091;SDS011;10704;42.678;23.288;2023-08-01T00:04:03;5.28;;;2.55;;
21091;SDS011;10704;42.678;23.288;2023-08-01T00:06:29;3.17;;;2.17;;
21091;SDS011;10704;42.678;23.288;2023-08-01T00:08:55;4.10;;;2.30;;
21091;SDS011;10704;42.678;23.288;2023-08-01T00:11:21;3.72;;;2.20;;
21091;SDS011;10704;42.678;23.288;2023-08-01T00:13:46;6.25;;;2.03;;
21091;SDS011;10704;42.678;23.288;2023-08-01T00:16:12;3.15;;;1.75;;
21091;SDS011;10704;42.678;23.288;2023-08-01T00:18:38;3.20;;;2.17;;
21091;SDS011;10704;42.678;23.288;2023-08-01T00:21:04;4.20;;;1.98;;
21091;SDS011;10704;42.678;23.288;2023-08-01T00:23:34;3.78;;;2.10;;
21091;SDS011;10704;42.678;23.288;2023-08-01T00:26:00;3.35;;;1.90;;
21091;SDS011;10704;42.678;23.288;2023-08-01T00:28:25;3.83;;;2.10;;
21091;SDS011;10704;42.678;23.288;2023-08-01T00:31:01;4.18;;;2.42;;
21091;SDS011;10704;42.678;23.288;2023-08-01T00:33:28;3.47;;;1.80;;
21091;SDS011;10704;42.678;23.288;2023-08-01T00:35:54;5.72;;;2.45;;
21091;SDS011;10704;42.678;23.288;2023-08-01T00:38:20;3.25;;;1.90;;
21091;SDS011;10704;42.678;23.288;2023-08-01T00:40:46;3.00;;;1.70;;
21091;SDS011;10704;42.678;23.288;2023-08-01T00:43:12;5.53;;;2.28;;
21091;SDS011;10704;42.678;23.288;2023-08-01T00:45:38;5.82;;;2.10;;
21091;SDS011;10704;42.678;23.288;2023-08-01T00:48:04;3.60;;;2.03;;
21091;SDS011;10704;42.678;23.288;2023-08-01T00:50:31;3.15;;;1.88;;
21091;SDS011;10704;42.678;23.288;2023-08-01T00:52:57;5.15;;;2.03;;
21091;SDS011;10704;42.678;23.288;2023-08-01T00:55:23;5.03;;;2.30;;
21091;SDS011;10704;42.678;23.288;2023-08-01T00:57:50;4.13;;;2.25;;
21091;SDS011;10704;42.678;23.288;2023-08-01T01:00:17;2.88;;;1.75;;
21091;SDS011;10704;42.678;23.288;2023-08-01T01:02:43;3.63;;;2.33;;
21091;SDS011;10704;42.678;23.288;2023-08-01T01:05:09;4.18;;;2.20;;
21091;SDS011;10704;42.678;23.288;2023-08-01T01:07:35;4.28;;;2.22;;
21091;SDS011;10704;42.678;23.288;2023-08-01T01:10:02;4.00;;;1.80;;
21091;SDS011;10704;42.678;23.288;2023-08-01T01:12:28;3.85;;;2.00;;
21091;SDS011;10704;42.678;23.288;2023-08-01T01:14:54;4.35;;;2.10;;
21091;SDS011;10704;42.678;23.288;2023-08-01T01:17:20;6.90;;;2.28;;
21091;SDS011;10704;42.678;23.288;2023-08-01T01:19:46;4.10;;;2.17;;
21091;SDS011;10704;42.678;23.288;2023-08-01T01:22:12;3.70;;;1.95;;
21091;SDS011;10704;42.678;23.288;2023-08-01T01:24:38;2.60;;;1.90;;
21091;SDS011;10704;42.678;23.288;2023-08-01T01:27:06;4.50;;;1.95;;
21091;SDS011;10704;42.678;23.288;2023-08-01T01:29:33;3.67;;;2.17;;
21091;SDS011;10704;42.678;23.288;2023-08-01T01:32:02;5.75;;;2.25;;
21091;SDS011;10704;42.678;23.288;2023-08-01T01:34:30;6.28;;;2.17;;
21091;SDS011;10704;42.678;23.288;2023-08-01T01:36:56;2.80;;;1.80;;
21091;SDS011;10704;42.678;23.288;2023-08-01T01:39:22;4.95;;;2.00;;
21091;SDS011;10704;42.678;23.288;2023-08-01T01:41:49;7.35;;;2.45;;
21091;SDS011;10704;42.678;23.288;2023-08-01T01:44:15;5.28;;;2.20;;
21091;SDS011;10704;42.678;23.288;2023-08-01T01:46:41;3.88;;;1.98;;
21091;SDS011;10704;42.678;23.288;2023-08-01T01:49:07;3.78;;;2.40;;
21091;SDS011;10704;42.678;23.288;2023-08-01T01:51:33;4.65;;;2.33;;
21091;SDS011;10704;42.678;23.288;2023-08-01T01:53:58;7.70;;;2.60;;
21091;SDS011;10704;42.678;23.288;2023-08-01T01:56:24;5.70;;;2.40;;
21091;SDS011;10704;42.678;23.288;2023-08-01T01:58:50;6.30;;;2.45;;
21091;SDS011;10704;42.678;23.288;2023-08-01T02:01:16;3.47;;;1.80;;
21091;SDS011;10704;42.678;23.288;2023-08-01T02:03:42;4.22;;;2.60;;
21091;SDS011;10704;42.678;23.288;2023-08-01T02:06:08;5.25;;;2.08;;
21091;SDS011;10704;42.678;23.288;2023-08-01T02:08:34;4.00;;;2.20;;
21091;SDS011;10704;42.678;23.288;2023-08-01T02:11:00;5.32;;;2.10;;
21091;SDS011;10704;42.678;23.288;2023-08-01T02:13:27;4.85;;;1.95;;
21091;SDS011;10704;42.678;23.288;2023-08-01T02:15:53;5.82;;;2.08;;
21091;SDS011;10704;42.678;23.288;2023-08-01T02:18:20;6.35;;;2.75;;
21091;SDS011;10704;42.678;23.288;2023-08-01T02:20:46;5.82;;;2.50;;
21091;SDS011;10704;42.678;23.288;2023-08-01T02:23:11;5.68;;;2.03;;
21091;SDS011;10704;42.678;23.288;2023-08-01T02:25:38;5.13;;;2.28;;
21091;SDS011;10704;42.678;23.288;2023-08-01T02:28:05;4.18;;;2.20;;
21091;SDS011;10704;42.678;23.288;2023-08-01T02:30:34;4.68;;;2.35;;
21091;SDS011;10704;42.678;23.288;2023-08-01T02:33:00;3.58;;;1.98;;
21091;SDS011;10704;42.678;23.288;2023-08-01T02:35:27;3.30;;;1.88;;
21091;SDS011;10704;42.678;23.288;2023-08-01T02:37:54;4.68;;;2.20;;
21091;SDS011;10704;42.678;23.288;2023-08-01T02:40:20;5.47;;;2.03;;
21091;SDS011;10704;42.678;23.288;2023-08-01T02:42:47;4.22;;;2.10;;
21091;SDS011;10704;42.678;23.288;2023-08-01T02:45:12;5.00;;;2.22;;
21091;SDS011;10704;42.678;23.288;2023-08-01T02:47:38;5.75;;;2.70;;
21091;SDS011;10704;42.678;23.288;2023-08-01T02:50:04;4.32;;;2.25;;
21091;SDS011;10704;42.678;23.288;2023-08-01T02:52:31;4.93;;;2.38;;
21091;SDS011;10704;42.678;23.288;2023-08-01T02:54:57;6.35;;;2.67;;
21091;SDS011;10704;42.678;23.288;2023-08-01T02:57:41;6.97;;;2.30;;
21091;SDS011;10704;42.678;23.288;2023-08-01T03:00:07;4.55;;;2.42;;
21091;SDS011;10704;42.678;23.288;2023-08-01T03:02:37;5.32;;;2.65;;
21091;SDS011;10704;42.678;23.288;2023-08-01T03:05:07;4.45;;;2.47;;
21091;SDS011;10704;42.678;23.288;2023-08-01T03:07:33;3.38;;;2.35;;
21091;SDS011;10704;42.678;23.288;2023-08-01T03:09:59;7.03;;;2.47;;
21091;SDS011;10704;42.678;23.288;2023-08-01T03:12:25;5.30;;;2.38;;
21091;SDS011;10704;42.678;23.288;2023-08-01T03:14:52;4.53;;;2.95;;
21091;SDS011;10704;42.678;23.288;2023-08-01T03:17:17;7.05;;;2.85;;
21091;SDS011;10704;42.678;23.288;2023-08-01T03:19:43;5.47;;;2.72;;
21091;SDS011;10704;42.678;23.288;2023-08-01T03:22:09;8.95;;;2.90;;
21091;SDS011;10704;42.678;23.288;2023-08-01T03:24:35;5.53;;;2.47;;
21091;SDS011;10704;42.678;23.288;2023-08-01T03:27:01;5.05;;;2.35;;
21091;SDS011;10704;42.678;23.288;2023-08-01T03:29:28;7.53;;;2.40;;
21091;SDS011;10704;42.678;23.288;2023-08-01T03:31:54;6.82;;;3.10;;
21091;SDS011;10704;42.678;23.288;2023-08-01T03:34:20;4.72;;;3.40;;
21091;SDS011;10704;42.678;23.288;2023-08-01T03:36:47;5.22;;;2.38;;
21091;SDS011;10704;42.678;23.288;2023-08-01T03:39:12;6.38;;;2.97;;
21091;SDS011;10704;42.678;23.288;2023-08-01T03:41:38;6.85;;;3.63;;
21091;SDS011;10704;42.678;23.288;2023-08-01T03:44:04;8.20;;;3.30;;
21091;SDS011;10704;42.678;23.288;2023-08-01T03:46:30;6.60;;;3.22;;
21091;SDS011;10704;42.678;23.288;2023-08-01T03:48:57;8.75;;;3.08;;
21091;SDS011;10704;42.678;23.288;2023-08-01T03:51:23;6.25;;;3.00;;
21091;SDS011;10704;42.678;23.288;2023-08-01T03:53:48;4.85;;;2.88;;
21091;SDS011;10704;42.678;23.288;2023-08-01T03:56:15;7.40;;;2.88;;
21091;SDS011;10704;42.678;23.288;2023-08-01T03:58:41;5.38;;;3.10;;
21091;SDS011;10704;42.678;23.288;2023-08-01T04:01:08;8.43;;;3.20;;
21091;SDS011;10704;42.678;23.288;2023-08-01T04:03:34;8.55;;;3.47;;
21091;SDS011;10704;42.678;23.288;2023-08-01T04:06:00;5.60;;;3.65;;
21091;SDS011;10704;42.678;23.288;2023-08-01T04:08:27;8.45;;;3.63;;
21091;SDS011;10704;42.678;23.288;2023-08-01T04:10:53;5.57;;;3.08;;
21091;SDS011;10704;42.678;23.288;2023-08-01T04:13:19;4.93;;;2.90;;
21091;SDS011;10704;42.678;23.288;2023-08-01T04:15:45;5.10;;;3.22;;
21091;SDS011;10704;42.678;23.288;2023-08-01T04:18:11;4.43;;;3.13;;
21091;SDS011;10704;42.678;23.288;2023-08-01T04:20:36;5.90;;;3.40;;
21091;SDS011;10704;42.678;23.288;2023-08-01T04:23:02;7.63;;;3.30;;
21091;SDS011;10704;42.678;23.288;2023-08-01T04:25:28;6.90;;;3.17;;
21091;SDS011;10704;42.678;23.288;2023-08-01T04:27:54;4.72;;;3.15;;
21091;SDS011;10704;42.678;23.288;2023-08-01T04:30:20;5.18;;;3.03;;
21091;SDS011;10704;42.678;23.288;2023-08-01T04:32:46;5.10;;;3.05;;
21091;SDS011;10704;42.678;23.288;2023-08-01T04:35:12;9.25;;;3.30;;
21091;SDS011;10704;42.678;23.288;2023-08-01T04:37:38;7.07;;;3.28;;
21091;SDS011;10704;42.678;23.288;2023-08-01T04:40:03;7.03;;;3.55;;
21091;SDS011;10704;42.678;23.288;2023-08-01T04:42:30;6.22;;;3.15;;
21091;SDS011;10704;42.678;23.288;2023-08-01T04:44:56;4.85;;;3.10;;
21091;SDS011;10704;42.678;23.288;2023-08-01T04:47:22;6.07;;;3.40;;
21091;SDS011;10704;42.678;23.288;2023-08-01T04:49:47;6.60;;;3.90;;
21091;SDS011;10704;42.678;23.288;2023-08-01T04:52:13;5.80;;;3.63;;
21091;SDS011;10704;42.678;23.288;2023-08-01T04:54:39;6.47;;;3.35;;
21091;SDS011;10704;42.678;23.288;2023-08-01T04:57:05;7.70;;;3.25;;
21091;SDS011;10704;42.678;23.288;2023-08-01T04:59:31;7.95;;;3.20;;
21091;SDS011;10704;42.678;23.288;2023-08-01T05:01:57;8.27;;;2.75;;
21091;SDS011;10704;42.678;23.288;2023-08-01T05:04:23;6.63;;;3.15;;
21091;SDS011;10704;42.678;23.288;2023-08-01T05:06:49;6.40;;;3.30;;
21091;SDS011;10704;42.678;23.288;2023-08-01T05:09:15;8.38;;;3.70;;
21091;SDS011;10704;42.678;23.288;2023-08-01T05:11:41;6.57;;;3.25;;
21091;SDS011;10704;42.678;23.288;2023-08-01T05:14:07;7.95;;;3.70;;
21091;SDS011;10704;42.678;23.288;2023-08-01T05:16:33;7.50;;;3.50;;
21091;SDS011;10704;42.678;23.288;2023-08-01T05:18:58;8.02;;;3.67;;
21091;SDS011;10704;42.678;23.288;2023-08-01T05:21:24;10.73;;;4.07;;
21091;SDS011;10704;42.678;23.288;2023-08-01T05:23:50;10.52;;;3.80;;
21091;SDS011;10704;42.678;23.288;2023-08-01T05:26:16;9.70;;;3.38;;
21091;SDS011;10704;42.678;23.288;2023-08-01T05:28:42;7.15;;;3.30;;
21091;SDS011;10704;42.678;23.288;2023-08-01T05:31:08;5.93;;;3.17;;
21091;SDS011;10704;42.678;23.288;2023-08-01T05:33:34;5.65;;;3.20;;
21091;SDS011;10704;42.678;23.288;2023-08-01T05:36:00;4.85;;;3.17;;
21091;SDS011;10704;42.678;23.288;2023-08-01T05:38:26;5.43;;;3.20;;
21091;SDS011;10704;42.678;23.288;2023-08-01T05:40:52;10.55;;;4.07;;
21091;SDS011;10704;42.678;23.288;2023-08-01T05:43:18;10.00;;;3.30;;
21091;SDS011;10704;42.678;23.288;2023-08-01T05:45:44;9.82;;;3.75;;
21091;SDS011;10704;42.678;23.288;2023-08-01T05:48:10;12.13;;;3.80;;
21091;SDS011;10704;42.678;23.288;2023-08-01T05:50:36;7.22;;;3.35;;
21091;SDS011;10704;42.678;23.288;2023-08-01T05:53:02;6.70;;;3.22;;
21091;SDS011;10704;42.678;23.288;2023-08-01T05:55:28;6.65;;;3.28;;
21091;SDS011;10704;42.678;23.288;2023-08-01T05:57:54;8.02;;;2.90;;
21091;SDS011;10704;42.678;23.288;2023-08-01T06:00:20;9.05;;;3.67;;
21091;SDS011;10704;42.678;23.288;2023-08-01T06:02:46;14.40;;;4.10;;
21091;SDS011;10704;42.678;23.288;2023-08-01T06:05:12;9.50;;;3.92;;
21091;SDS011;10704;42.678;23.288;2023-08-01T06:07:38;9.05;;;3.45;;
21091;SDS011;10704;42.678;23.288;2023-08-01T06:10:04;11.00;;;3.95;;
21091;SDS011;10704;42.678;23.288;2023-08-01T06:12:30;6.22;;;3.60;;
21091;SDS011;10704;42.678;23.288;2023-08-01T06:14:56;7.60;;;2.92;;
21091;SDS011;10704;42.678;23.288;2023-08-01T06:17:22;5.68;;;3.10;;
21091;SDS011;10704;42.678;23.288;2023-08-01T06:19:48;6.50;;;2.95;;
21091;SDS011;10704;42.678;23.288;2023-08-01T06:22:15;7.13;;;3.38;;
21091;SDS011;10704;42.678;23.288;2023-08-01T06:24:41;5.30;;;2.78;;
21091;SDS011;10704;42.678;23.288;2023-08-01T06:27:07;5.28;;;2.53;;
21091;SDS011;10704;42.678;23.288;2023-08-01T06:29:33;5.18;;;2.20;;
21091;SDS011;10704;42.678;23.288;2023-08-01T06:31:59;6.15;;;2.58;;
21091;SDS011;10704;42.678;23.288;2023-08-01T06:34:24;4.68;;;2.30;;
21091;SDS011;10704;42.678;23.288;2023-08-01T06:36:51;4.60;;;2.72;;
21091;SDS011;10704;42.678;23.288;2023-08-01T06:39:17;4.70;;;2.60;;
21091;SDS011;10704;42.678;23.288;2023-08-01T06:41:43;5.93;;;2.60;;
21091;SDS011;10704;42.678;23.288;2023-08-01T06:44:09;7.65;;;2.58;;
21091;SDS011;10704;42.678;23.288;2023-08-01T06:46:35;11.73;;;3.05;;
21091;SDS011;10704;42.678;23.288;2023-08-01T06:49:01;6.82;;;2.38;;
21091;SDS011;10704;42.678;23.288;2023-08-01T06:51:26;8.13;;;2.83;;
21091;SDS011;10704;42.678;23.288;2023-08-01T06:53:52;6.28;;;2.55;;
21091;SDS011;10704;42.678;23.288;2023-08-01T06:56:18;7.00;;;2.55;;
21091;SDS011;10704;42.678;23.288;2023-08-01T06:58:44;5.00;;;2.58;;
21091;SDS011;10704;42.678;23.288;2023-08-01T07:01:10;5.85;;;2.47;;
21091;SDS011;10704;42.678;23.288;2023-08-01T07:03:36;8.23;;;2.15;;
21091;SDS011;10704;42.678;23.288;2023-08-01T07:06:02;5.25;;;2.60;;
21091;SDS011;10704;42.678;23.288;2023-08-01T07:08:27;4.35;;;2.45;;
21091;SDS011;10704;42.678;23.288;2023-08-01T07:10:53;6.00;;;2.67;;
21091;SDS011;10704;42.678;23.288;2023-08-01T07:13:19;7.03;;;3.13;;
21091;SDS011;10704;42.678;23.288;2023-08-01T07:15:45;4.35;;;2.45;;
21091;SDS011;10704;42.678;23.288;2023-08-01T07:18:11;7.13;;;3.30;;
21091;SDS011;10704;42.678;23.288;2023-08-01T07:20:37;10.90;;;2.92;;
21091;SDS011;10704;42.678;23.288;2023-08-01T07:23:03;8.55;;;3.40;;
21091;SDS011;10704;42.678;23.288;2023-08-01T07:25:29;8.30;;;3.20;;
21091;SDS011;10704;42.678;23.288;2023-08-01T07:27:54;4.95;;;2.60;;
21091;SDS011;10704;42.678;23.288;2023-08-01T07:30:20;5.90;;;2.80;;
21091;SDS011;10704;42.678;23.288;2023-08-01T07:32:46;9.35;;;2.92;;
21091;SDS011;10704;42.678;23.288;2023-08-01T07:35:12;4.53;;;2.88;;
21091;SDS011;10704;42.678;23.288;2023-08-01T07:37:39;4.30;;;2.63;;
21091;SDS011;10704;42.678;23.288;2023-08-01T07:40:05;19.10;;;3.03;;
21091;SDS011;10704;42.678;23.288;2023-08-01T07:42:31;9.00;;;3.10;;
21091;SDS011;10704;42.678;23.288;2023-08-01T07:44:57;6.40;;;3.50;;
21091;SDS011;10704;42.678;23.288;2023-08-01T07:47:23;4.43;;;2.67;;
21091;SDS011;10704;42.678;23.288;2023-08-01T07:49:50;5.72;;;3.03;;
21091;SDS011;10704;42.678;23.288;2023-08-01T07:52:16;7.13;;;2.78;;
21091;SDS011;10704;42.678;23.288;2023-08-01T07:54:42;6.35;;;3.38;;
21091;SDS011;10704;42.678;23.288;2023-08-01T07:57:08;9.30;;;3.33;;
21091;SDS011;10704;42.678;23.288;2023-08-01T07:59:34;5.45;;;3.35;;
21091;SDS011;10704;42.678;23.288;2023-08-01T08:02:00;8.30;;;3.25;;
21091;SDS011;10704;42.678;23.288;2023-08-01T08:04:26;6.43;;;3.38;;
21091;SDS011;10704;42.678;23.288;2023-08-01T08:06:51;5.43;;;2.90;;
21091;SDS011;10704;42.678;23.288;2023-08-01T08:09:17;5.55;;;3.05;;
21091;SDS011;10704;42.678;23.288;2023-08-01T08:11:43;8.60;;;3.22;;
21091;SDS011;10704;42.678;23.288;2023-08-01T08:14:09;6.30;;;3.33;;
21091;SDS011;10704;42.678;23.288;2023-08-01T08:16:36;7.25;;;3.08;;
21091;SDS011;10704;42.678;23.288;2023-08-01T08:19:02;6.70;;;3.00;;
21091;SDS011;10704;42.678;23.288;2023-08-01T08:21:28;5.20;;;2.97;;
21091;SDS011;10704;42.678;23.288;2023-08-01T08:23:54;6.32;;;3.70;;
21091;SDS011;10704;42.678;23.288;2023-08-01T08:26:20;6.78;;;3.10;;
21091;SDS011;10704;42.678;23.288;2023-08-01T08:28:46;7.55;;;3.40;;
21091;SDS011;10704;42.678;23.288;2023-08-01T08:31:12;4.95;;;2.67;;
21091;SDS011;10704;42.678;23.288;2023-08-01T08:33:38;5.32;;;3.05;;
21091;SDS011;10704;42.678;23.288;2023-08-01T08:36:04;11.52;;;3.58;;
21091;SDS011;10704;42.678;23.288;2023-08-01T08:38:30;7.32;;;3.33;;
21091;SDS011;10704;42.678;23.288;2023-08-01T08:43:28;8.32;;;3.33;;
21091;SDS011;10704;42.678;23.288;2023-08-01T08:45:56;7.95;;;4.40;;
21091;SDS011;10704;42.678;23.288;2023-08-01T08:48:25;5.45;;;2.92;;
21091;SDS011;10704;42.678;23.288;2023-08-01T08:50:52;8.50;;;3.20;;
21091;SDS011;10704;42.678;23.288;2023-08-01T08:53:19;9.73;;;3.72;;
21091;SDS011;10704;42.678;23.288;2023-08-01T08:55:47;7.13;;;3.70;;
21091;SDS011;10704;42.678;23.288;2023-08-01T08:58:13;5.85;;;3.13;;
21091;SDS011;10704;42.678;23.288;2023-08-01T09:00:41;6.97;;;3.95;;
21091;SDS011;10704;42.678;23.288;2023-08-01T09:03:08;7.50;;;3.53;;
21091;SDS011;10704;42.678;23.288;2023-08-01T09:05:36;10.15;;;4.30;;
21091;SDS011;10704;42.678;23.288;2023-08-01T09:08:21;9.02;;;3.47;;
21091;SDS011;10704;42.678;23.288;2023-08-01T09:10:49;5.00;;;3.58;;
21091;SDS011;10704;42.678;23.288;2023-08-01T09:13:15;8.95;;;3.70;;
21091;SDS011;10704;42.678;23.288;2023-08-01T09:15:41;11.18;;;3.35;;
21091;SDS011;10704;42.678;23.288;2023-08-01T09:18:10;7.30;;;3.60;;
21091;SDS011;10704;42.678;23.288;2023-08-01T09:20:43;7.82;;;3.00;;
21091;SDS011;10704;42.678;23.288;2023-08-01T09:23:11;8.80;;;3.55;;
21091;SDS011;10704;42.678;23.288;2023-08-01T09:25:37;7.05;;;3.47;;
21091;SDS011;10704;42.678;23.288;2023-08-01T09:28:14;8.45;;;3.75;;
21091;SDS011;10704;42.678;23.288;2023-08-01T09:30:50;7.68;;;3.65;;
21091;SDS011;10704;42.678;23.288;2023-08-01T09:33:21;4.90;;;3.63;;
21091;SDS011;10704;42.678;23.288;2023-08-01T09:35:49;6.80;;;4.00;;
21091;SDS011;10704;42.678;23.288;2023-08-01T09:38:15;5.78;;;3.15;;
21091;SDS011;10704;42.678;23.288;2023-08-01T09:40:42;9.63;;;3.95;;
21091;SDS011;10704;42.678;23.288;2023-08-01T09:43:10;7.25;;;3.60;;
21091;SDS011;10704;42.678;23.288;2023-08-01T09:45:36;8.00;;;3.80;;
21091;SDS011;10704;42.678;23.288;2023-08-01T09:48:03;6.43;;;3.60;;
21091;SDS011;10704;42.678;23.288;2023-08-01T09:50:29;7.95;;;3.67;;
21091;SDS011;10704;42.678;23.288;2023-08-01T09:52:55;5.72;;;3.25;;
21091;SDS011;10704;42.678;23.288;2023-08-01T09:57:51;7.18;;;4.32;;
21091;SDS011;10704;42.678;23.288;2023-08-01T10:00:22;10.63;;;4.75;;
21091;SDS011;10704;42.678;23.288;2023-08-01T10:02:48;11.50;;;3.85;;
21091;SDS011;10704;42.678;23.288;2023-08-01T10:05:18;8.23;;;4.20;;
21091;SDS011;10704;42.678;23.288;2023-08-01T10:07:46;7.63;;;4.00;;
21091;SDS011;10704;42.678;23.288;2023-08-01T10:10:14;4.97;;;3.60;;
21091;SDS011;10704;42.678;23.288;2023-08-01T10:12:43;8.77;;;3.78;;
21091;SDS011;10704;42.678;23.288;2023-08-01T10:15:14;4.70;;;3.78;;
21091;SDS011;10704;42.678;23.288;2023-08-01T10:17:41;5.95;;;4.07;;
21091;SDS011;10704;42.678;23.288;2023-08-01T10:20:07;5.03;;;3.85;;
21091;SDS011;10704;42.678;23.288;2023-08-01T10:22:33;8.57;;;3.67;;
21091;SDS011;10704;42.678;23.288;2023-08-01T10:25:00;8.32;;;4.07;;
21091;SDS011;10704;42.678;23.288;2023-08-01T10:27:28;5.97;;;3.78;;
21091;SDS011;10704;42.678;23.288;2023-08-01T10:29:57;6.68;;;4.50;;
21091;SDS011;10704;42.678;23.288;2023-08-01T10:32:34;8.20;;;3.67;;
21091;SDS011;10704;42.678;23.288;2023-08-01T10:35:02;6.68;;;3.53;;
21091;SDS011;10704;42.678;23.288;2023-08-01T10:37:39;7.10;;;3.40;;
21091;SDS011;10704;42.678;23.288;2023-08-01T10:40:08;8.25;;;3.85;;
21091;SDS011;10704;42.678;23.288;2023-08-01T10:42:42;9.43;;;4.25;;
21091;SDS011;10704;42.678;23.288;2023-08-01T10:45:22;8.52;;;4.60;;
21091;SDS011;10704;42.678;23.288;2023-08-01T10:47:49;11.20;;;4.43;;
21091;SDS011;10704;42.678;23.288;2023-08-01T10:50:16;8.68;;;4.03;;
21091;SDS011;10704;42.678;23.288;2023-08-01T10:52:42;6.95;;;3.63;;
21091;SDS011;10704;42.678;23.288;2023-08-01T10:55:08;6.07;;;3.80;;
21091;SDS011;10704;42.678;23.288;2023-08-01T10:57:36;6.40;;;3.70;;
21091;SDS011;10704;42.678;23.288;2023-08-01T11:00:04;6.85;;;3.50;;
21091;SDS011;10704;42.678;23.288;2023-08-01T11:02:34;5.10;;;3.30;;
21091;SDS011;10704;42.678;23.288;2023-08-01T11:05:02;6.50;;;3.78;;
21091;SDS011;10704;42.678;23.288;2023-08-01T11:07:32;7.03;;;4.05;;
21091;SDS011;10704;42.678;23.288;2023-08-01T11:12:38;6.65;;;2.60;;
21091;SDS011;10704;42.678;23.288;2023-08-01T11:15:06;4.13;;;2.40;;
21091;SDS011;10704;42.678;23.288;2023-08-01T11:17:41;4.93;;;2.55;;
21091;SDS011;10704;42.678;23.288;2023-08-01T11:20:09;5.03;;;2.55;;
21091;SDS011;10704;42.678;23.288;2023-08-01T11:22:37;5.32;;;2.95;;
21091;SDS011;10704;42.678;23.288;2023-08-01T11:25:03;4.07;;;2.78;;
21091;SDS011;10704;42.678;23.288;2023-08-01T11:27:30;4.38;;;3.00;;
21091;SDS011;10704;42.678;23.288;2023-08-01T11:29:57;4.78;;;2.50;;
21091;SDS011;10704;42.678;23.288;2023-08-01T11:32:32;3.78;;;2.90;;
21091;SDS011;10704;42.678;23.288;2023-08-01T11:35:00;4.38;;;2.63;;
21091;SDS011;10704;42.678;23.288;2023-08-01T11:37:27;5.25;;;2.58;;
21091;SDS011;10704;42.678;23.288;2023-08-01T11:39:54;4.18;;;2.30;;
21091;SDS011;10704;42.678;23.288;2023-08-01T11:42:20;4.45;;;2.80;;
21091;SDS011;10704;42.678;23.288;2023-08-01T11:44:46;3.45;;;2.45;;
21091;SDS011;10704;42.678;23.288;2023-08-01T11:47:16;4.70;;;2.38;;
21091;SDS011;10704;42.678;23.288;2023-08-01T11:49:49;6.28;;;2.55;;
21091;SDS011;10704;42.678;23.288;2023-08-01T11:54:50;4.15;;;2.88;;
21091;SDS011;10704;42.678;23.288;2023-08-01T11:57:17;5.07;;;2.33;;
21091;SDS011;10704;42.678;23.288;2023-08-01T11:59:47;4.15;;;2.60;;
21091;SDS011;10704;42.678;23.288;2023-08-01T12:02:24;2.72;;;2.00;;
21091;SDS011;10704;42.678;23.288;2023-08-01T12:04:51;4.82;;;2.60;;
21091;SDS011;10704;42.678;23.288;2023-08-01T12:07:18;6.15;;;3.45;;
21091;SDS011;10704;42.678;23.288;2023-08-01T12:09:44;7.68;;;3.67;;
21091;SDS011;10704;42.678;23.288;2023-08-01T12:12:20;7.53;;;3.20;;
21091;SDS011;10704;42.678;23.288;2023-08-01T12:14:46;4.57;;;2.85;;
21091;SDS011;10704;42.678;23.288;2023-08-01T12:17:12;4.80;;;3.70;;
21091;SDS011;10704;42.678;23.288;2023-08-01T12:19:38;7.38;;;2.92;;
21091;SDS011;10704;42.678;23.288;2023-08-01T12:22:04;6.45;;;2.80;;
21091;SDS011;10704;42.678;23.288;2023-08-01T12:24:30;7.57;;;3.35;;
21091;SDS011;10704;42.678;23.288;2023-08-01T12:26:56;6.43;;;2.92;;
21091;SDS011;10704;42.678;23.288;2023-08-01T12:29:22;4.18;;;2.80;;
21091;SDS011;10704;42.678;23.288;2023-08-01T12:31:48;3.67;;;2.60;;
21091;SDS011;10704;42.678;23.288;2023-08-01T12:34:14;4.05;;;2.60;;
21091;SDS011;10704;42.678;23.288;2023-08-01T12:36:40;2.78;;;2.13;;
21091;SDS011;10704;42.678;23.288;2023-08-01T12:39:06;6.13;;;2.88;;
21091;SDS011;10704;42.678;23.288;2023-08-01T12:41:36;6.18;;;3.30;;
21091;SDS011;10704;42.678;23.288;2023-08-01T12:44:03;6.03;;;2.42;;
21091;SDS011;10704;42.678;23.288;2023-08-01T12:46:29;4.75;;;2.55;;
21091;SDS011;10704;42.678;23.288;2023-08-01T12:48:55;3.58;;;2.17;;
21091;SDS011;10704;42.678;23.288;2023-08-01T12:51:21;3.58;;;2.20;;
21091;SDS011;10704;42.678;23.288;2023-08-01T12:53:47;3.45;;;2.13;;
21091;SDS011;10704;42.678;23.288;2023-08-01T12:56:13;3.13;;;2.15;;
21091;SDS011;10704;42.678;23.288;2023-08-01T12:58:39;3.10;;;1.98;;
21091;SDS011;10704;42.678;23.288;2023-08-01T13:01:05;3.90;;;2.50;;
21091;SDS011;10704;42.678;23.288;2023-08-01T13:03:31;6.05;;;2.70;;
21091;SDS011;10704;42.678;23.288;2023-08-01T13:05:58;3.42;;;2.00;;
21091;SDS011;10704;42.678;23.288;2023-08-01T13:08:24;4.05;;;2.33;;
21091;SDS011;10704;42.678;23.288;2023-08-01T13:10:50;7.68;;;2.88;;
21091;SDS011;10704;42.678;23.288;2023-08-01T13:13:17;3.20;;;2.20;;
21091;SDS011;10704;42.678;23.288;2023-08-01T13:15:43;6.35;;;2.88;;
21091;SDS011;10704;42.678;23.288;2023-08-01T13:18:09;5.57;;;3.03;;
21091;SDS011;10704;42.678;23.288;2023-08-01T13:20:35;5.85;;;3.30;;
21091;SDS011;10704;42.678;23.288;2023-08-01T13:23:01;3.55;;;2.45;;
21091;SDS011;10704;42.678;23.288;2023-08-01T13:25:28;4.15;;;2.63;;
21091;SDS011;10704;42.678;23.288;2023-08-01T13:27:54;6.10;;;3.20;;
21091;SDS011;10704;42.678;23.288;2023-08-01T13:30:20;6.53;;;3.70;;
21091;SDS011;10704;42.678;23.288;2023-08-01T13:32:46;6.30;;;4.13;;
21091;SDS011;10704;42.678;23.288;2023-08-01T13:35:12;5.88;;;2.65;;
21091;SDS011;10704;42.678;23.288;2023-08-01T13:37:38;3.55;;;2.30;;
21091;SDS011;10704;42.678;23.288;2023-08-01T13:40:04;4.68;;;2.63;;
21091;SDS011;10704;42.678;23.288;2023-08-01T13:42:31;4.97;;;2.80;;
21091;SDS011;10704;42.678;23.288;2023-08-01T13:44:56;5.70;;;2.92;;
21091;SDS011;10704;42.678;23.288;2023-08-01T13:47:23;4.93;;;2.58;;
21091;SDS011;10704;42.678;23.288;2023-08-01T13:49:49;5.55;;;3.00;;
21091;SDS011;10704;42.678;23.288;2023-08-01T13:52:15;3.72;;;2.30;;
21091;SDS011;10704;42.678;23.288;2023-08-01T13:54:40;4.07;;;2.40;;
21091;SDS011;10704;42.678;23.288;2023-08-01T13:57:06;5.35;;;3.08;;
21091;SDS011;10704;42.678;23.288;2023-08-01T13:59:32;4.45;;;2.45;;
21091;SDS011;10704;42.678;23.288;2023-08-01T14:01:58;4.18;;;2.60;;
21091;SDS011;10704;42.678;23.288;2023-08-01T14:04:24;4.03;;;2.15;;
21091;SDS011;10704;42.678;23.288;2023-08-01T14:06:50;3.55;;;2.15;;
21091;SDS011;10704;42.678;23.288;2023-08-01T14:09:16;6.57;;;3.72;;
21091;SDS011;10704;42.678;23.288;2023-08-01T14:11:42;4.82;;;2.70;;
21091;SDS011;10704;42.678;23.288;2023-08-01T14:14:08;7.32;;;4.38;;
21091;SDS011;10704;42.678;23.288;2023-08-01T14:16:34;4.47;;;2.75;;
21091;SDS011;10704;42.678;23.288;2023-08-01T14:19:00;5.90;;;3.95;;
21091;SDS011;10704;42.678;23.288;2023-08-01T14:21:26;5.75;;;3.72;;
21091;SDS011;10704;42.678;23.288;2023-08-01T14:23:52;4.60;;;2.78;;
21091;SDS011;10704;42.678;23.288;2023-08-01T14:26:18;3.72;;;2.65;;
21091;SDS011;10704;42.678;23.288;2023-08-01T14:28:43;4.40;;;2.30;;
21091;SDS011;10704;42.678;23.288;2023-08-01T14:31:09;5.47;;;3.22;;
21091;SDS011;10704;42.678;23.288;2023-08-01T14:33:35;4.35;;;2.95;;
21091;SDS011;10704;42.678;23.288;2023-08-01T14:36:01;4.50;;;2.90;;
21091;SDS011;10704;42.678;23.288;2023-08-01T14:38:27;3.95;;;2.60;;
21091;SDS011;10704;42.678;23.288;2023-08-01T14:40:53;3.92;;;2.72;;